KMGR

Moultrie Municipal Airport

Moultrie, Georgia, USA
METAR KMGR 241935Z AUTO 22007KT 10SM SCT049 SCT055 28/15 A3013 RMK AO2
Observed Flight Rules
Feb-24 @ 19:35 UTC (36 minutes ago) Visual Flight Rules
Wind Visibility Clouds
220° at 7 knots 10 miles
  • Scattered at 4,900' AGL
  • Scattered at 5,500' AGL
Temperatures Readings
Current 28°C / 82°F
Dewpoint 15°C / 59°F
Humidity 45%
Altimeter 30.13" Hg
Pressure 1020 hPa
Elevation 90
METAR KMGR 241935Z AUTO 22007KT 10SM SCT049 SCT055 28/15 A3013 RMK AO2
Observed Flight Rules
Feb-24 @ 19:35 UTC
(36 minutes ago)
VFR
Wind Visibility
220° at 7 knots 10 miles
Clouds
  • Scattered at 4,900' AGL
  • Scattered at 5,500' AGL
Temperature Dewpoint
28°C / 82°F 15°C / 59°F
Humidity Altimeter Pressure
45% 30.13" Hg 1020 hPa